sensor_id;sensor_type;location;lat;lon;timestamp;temperature;humidity
41256;DHT22;26989;45.524;10.938;2022-07-23T00:00:14;28.00;73.40
41256;DHT22;26989;45.524;10.938;2022-07-23T00:02:41;28.00;73.20
41256;DHT22;26989;45.524;10.938;2022-07-23T00:05:09;28.00;73.10
41256;DHT22;26989;45.524;10.938;2022-07-23T00:07:37;28.00;73.10
41256;DHT22;26989;45.524;10.938;2022-07-23T00:10:05;28.00;73.30
41256;DHT22;26989;45.524;10.938;2022-07-23T00:12:32;28.00;73.10
41256;DHT22;26989;45.524;10.938;2022-07-23T00:14:59;27.90;73.20
41256;DHT22;26989;45.524;10.938;2022-07-23T00:17:26;27.90;73.20
41256;DHT22;26989;45.524;10.938;2022-07-23T00:19:53;28.00;73.20
41256;DHT22;26989;45.524;10.938;2022-07-23T00:22:20;27.90;73.10
41256;DHT22;26989;45.524;10.938;2022-07-23T00:24:47;27.80;73.20
41256;DHT22;26989;45.524;10.938;2022-07-23T00:27:34;27.70;73.30
41256;DHT22;26989;45.524;10.938;2022-07-23T00:30:01;27.70;73.20
41256;DHT22;26989;45.524;10.938;2022-07-23T00:32:28;27.70;73.20
41256;DHT22;26989;45.524;10.938;2022-07-23T00:35:15;27.80;72.90
41256;DHT22;26989;45.524;10.938;2022-07-23T00:37:42;27.80;72.70
41256;DHT22;26989;45.524;10.938;2022-07-23T00:40:10;27.90;72.40
41256;DHT22;26989;45.524;10.938;2022-07-23T00:42:37;28.00;72.50
41256;DHT22;26989;45.524;10.938;2022-07-23T00:45:05;28.00;72.20
41256;DHT22;26989;45.524;10.938;2022-07-23T00:47:32;27.80;72.80
41256;DHT22;26989;45.524;10.938;2022-07-23T00:49:59;27.60;73.20
41256;DHT22;26989;45.524;10.938;2022-07-23T00:52:26;27.50;73.30
41256;DHT22;26989;45.524;10.938;2022-07-23T00:54:53;27.50;73.00
41256;DHT22;26989;45.524;10.938;2022-07-23T00:57:20;27.80;72.70
41256;DHT22;26989;45.524;10.938;2022-07-23T00:59:54;27.70;72.50
41256;DHT22;26989;45.524;10.938;2022-07-23T01:02:21;27.70;72.60
41256;DHT22;26989;45.524;10.938;2022-07-23T01:04:48;27.60;72.80
41256;DHT22;26989;45.524;10.938;2022-07-23T01:07:15;27.70;72.80
41256;DHT22;26989;45.524;10.938;2022-07-23T01:09:44;27.70;72.40
41256;DHT22;26989;45.524;10.938;2022-07-23T01:12:12;27.70;72.80
41256;DHT22;26989;45.524;10.938;2022-07-23T01:14:39;27.70;72.80
41256;DHT22;26989;45.524;10.938;2022-07-23T01:17:05;27.60;73.50
41256;DHT22;26989;45.524;10.938;2022-07-23T01:19:32;27.60;73.20
41256;DHT22;26989;45.524;10.938;2022-07-23T01:22:02;27.50;73.50
41256;DHT22;26989;45.524;10.938;2022-07-23T01:24:29;27.50;73.70
41256;DHT22;26989;45.524;10.938;2022-07-23T01:26:56;27.40;73.70
41256;DHT22;26989;45.524;10.938;2022-07-23T01:29:23;27.40;74.10
41256;DHT22;26989;45.524;10.938;2022-07-23T01:31:50;27.00;74.00
41256;DHT22;26989;45.524;10.938;2022-07-23T01:34:17;26.80;74.60
41256;DHT22;26989;45.524;10.938;2022-07-23T01:36:44;26.70;74.80
41256;DHT22;26989;45.524;10.938;2022-07-23T01:39:11;26.60;74.90
41256;DHT22;26989;45.524;10.938;2022-07-23T01:41:38;26.70;75.00
41256;DHT22;26989;45.524;10.938;2022-07-23T01:44:05;26.60;75.20
41256;DHT22;26989;45.524;10.938;2022-07-23T01:46:32;26.60;75.30
41256;DHT22;26989;45.524;10.938;2022-07-23T01:48:59;26.60;75.30
41256;DHT22;26989;45.524;10.938;2022-07-23T01:51:27;26.40;75.60
41256;DHT22;26989;45.524;10.938;2022-07-23T01:53:53;26.20;76.30
41256;DHT22;26989;45.524;10.938;2022-07-23T01:56:20;26.10;76.60
41256;DHT22;26989;45.524;10.938;2022-07-23T01:58:48;26.20;76.70
41256;DHT22;26989;45.524;10.938;2022-07-23T02:01:15;26.20;76.80
41256;DHT22;26989;45.524;10.938;2022-07-23T02:03:42;26.20;76.70
41256;DHT22;26989;45.524;10.938;2022-07-23T02:06:09;26.20;76.50
41256;DHT22;26989;45.524;10.938;2022-07-23T02:08:36;26.20;76.70
41256;DHT22;26989;45.524;10.938;2022-07-23T02:11:03;26.00;76.90
41256;DHT22;26989;45.524;10.938;2022-07-23T02:13:29;25.90;77.20
41256;DHT22;26989;45.524;10.938;2022-07-23T02:16:00;25.80;77.30
41256;DHT22;26989;45.524;10.938;2022-07-23T02:18:27;25.90;77.10
41256;DHT22;26989;45.524;10.938;2022-07-23T02:20:54;25.90;77.10
41256;DHT22;26989;45.524;10.938;2022-07-23T02:23:20;26.10;76.60
41256;DHT22;26989;45.524;10.938;2022-07-23T02:25:47;26.10;76.80
41256;DHT22;26989;45.524;10.938;2022-07-23T02:28:15;26.10;76.60
41256;DHT22;26989;45.524;10.938;2022-07-23T02:30:42;26.10;77.00
41256;DHT22;26989;45.524;10.938;2022-07-23T02:33:08;25.90;77.00
41256;DHT22;26989;45.524;10.938;2022-07-23T02:35:35;25.90;77.20
41256;DHT22;26989;45.524;10.938;2022-07-23T02:38:02;26.00;76.90
41256;DHT22;26989;45.524;10.938;2022-07-23T02:40:29;26.00;76.60
41256;DHT22;26989;45.524;10.938;2022-07-23T02:42:56;26.00;76.40
41256;DHT22;26989;45.524;10.938;2022-07-23T02:45:23;25.90;76.60
41256;DHT22;26989;45.524;10.938;2022-07-23T02:47:50;25.90;76.40
41256;DHT22;26989;45.524;10.938;2022-07-23T02:50:17;25.90;76.60
41256;DHT22;26989;45.524;10.938;2022-07-23T02:52:44;25.80;76.40
41256;DHT22;26989;45.524;10.938;2022-07-23T02:55:10;25.80;76.40
41256;DHT22;26989;45.524;10.938;2022-07-23T02:57:37;25.80;76.10
41256;DHT22;26989;45.524;10.938;2022-07-23T03:00:05;25.80;75.80
41256;DHT22;26989;45.524;10.938;2022-07-23T03:02:33;25.80;76.20
41256;DHT22;26989;45.524;10.938;2022-07-23T03:04:59;25.90;76.40
41256;DHT22;26989;45.524;10.938;2022-07-23T03:07:26;25.70;76.30
41256;DHT22;26989;45.524;10.938;2022-07-23T03:09:53;25.80;76.30
41256;DHT22;26989;45.524;10.938;2022-07-23T03:12:20;25.70;76.00
41256;DHT22;26989;45.524;10.938;2022-07-23T03:14:47;25.70;76.20
41256;DHT22;26989;45.524;10.938;2022-07-23T03:17:14;25.80;75.80
41256;DHT22;26989;45.524;10.938;2022-07-23T03:19:41;25.80;75.40
41256;DHT22;26989;45.524;10.938;2022-07-23T03:22:08;25.80;75.40
41256;DHT22;26989;45.524;10.938;2022-07-23T03:24:35;25.70;75.70
41256;DHT22;26989;45.524;10.938;2022-07-23T03:27:25;25.60;75.90
41256;DHT22;26989;45.524;10.938;2022-07-23T03:29:56;25.60;76.10
41256;DHT22;26989;45.524;10.938;2022-07-23T03:32:24;25.60;76.20
41256;DHT22;26989;45.524;10.938;2022-07-23T03:34:52;25.50;76.10
41256;DHT22;26989;45.524;10.938;2022-07-23T03:37:19;25.50;75.90
41256;DHT22;26989;45.524;10.938;2022-07-23T03:39:47;25.50;75.80
41256;DHT22;26989;45.524;10.938;2022-07-23T03:42:14;25.50;75.80
41256;DHT22;26989;45.524;10.938;2022-07-23T03:44:41;25.50;76.10
41256;DHT22;26989;45.524;10.938;2022-07-23T03:47:08;25.50;76.10
41256;DHT22;26989;45.524;10.938;2022-07-23T03:49:35;25.60;75.60
41256;DHT22;26989;45.524;10.938;2022-07-23T03:52:02;25.60;75.30
41256;DHT22;26989;45.524;10.938;2022-07-23T03:54:29;25.70;74.90
41256;DHT22;26989;45.524;10.938;2022-07-23T03:56:55;25.80;74.60
41256;DHT22;26989;45.524;10.938;2022-07-23T03:59:22;25.80;74.20
41256;DHT22;26989;45.524;10.938;2022-07-23T04:01:51;25.90;74.10
41256;DHT22;26989;45.524;10.938;2022-07-23T04:04:18;26.10;74.10
41256;DHT22;26989;45.524;10.938;2022-07-23T04:06:45;26.10;73.60
41256;DHT22;26989;45.524;10.938;2022-07-23T04:09:12;26.00;73.60
41256;DHT22;26989;45.524;10.938;2022-07-23T04:11:39;25.90;73.60
41256;DHT22;26989;45.524;10.938;2022-07-23T04:14:05;25.90;73.80
41256;DHT22;26989;45.524;10.938;2022-07-23T04:16:32;25.90;74.00
41256;DHT22;26989;45.524;10.938;2022-07-23T04:18:59;25.70;75.10
41256;DHT22;26989;45.524;10.938;2022-07-23T04:21:27;25.50;76.60
41256;DHT22;26989;45.524;10.938;2022-07-23T04:23:54;25.60;76.90
41256;DHT22;26989;45.524;10.938;2022-07-23T04:26:21;25.70;75.90
41256;DHT22;26989;45.524;10.938;2022-07-23T04:28:47;25.70;75.10
41256;DHT22;26989;45.524;10.938;2022-07-23T04:31:14;25.80;74.50
41256;DHT22;26989;45.524;10.938;2022-07-23T04:33:41;25.90;74.20
41256;DHT22;26989;45.524;10.938;2022-07-23T04:36:08;25.90;74.70
41256;DHT22;26989;45.524;10.938;2022-07-23T04:38:35;26.00;75.00
41256;DHT22;26989;45.524;10.938;2022-07-23T04:41:02;25.90;75.70
41256;DHT22;26989;45.524;10.938;2022-07-23T04:43:29;25.80;75.80
41256;DHT22;26989;45.524;10.938;2022-07-23T04:45:55;25.70;75.80
41256;DHT22;26989;45.524;10.938;2022-07-23T04:48:22;25.70;76.00
41256;DHT22;26989;45.524;10.938;2022-07-23T04:50:50;25.80;76.40
41256;DHT22;26989;45.524;10.938;2022-07-23T04:53:17;26.00;76.20
41256;DHT22;26989;45.524;10.938;2022-07-23T04:55:45;26.50;75.40
41256;DHT22;26989;45.524;10.938;2022-07-23T04:58:12;27.20;74.00
41256;DHT22;26989;45.524;10.938;2022-07-23T05:00:39;27.00;74.10
41256;DHT22;26989;45.524;10.938;2022-07-23T05:03:05;26.80;74.20
41256;DHT22;26989;45.524;10.938;2022-07-23T05:05:32;27.40;73.50
41256;DHT22;26989;45.524;10.938;2022-07-23T05:07:59;27.90;72.10
41256;DHT22;26989;45.524;10.938;2022-07-23T05:10:26;27.20;73.70
41256;DHT22;26989;45.524;10.938;2022-07-23T05:12:53;27.20;74.00
41256;DHT22;26989;45.524;10.938;2022-07-23T05:15:20;27.10;74.50
41256;DHT22;26989;45.524;10.938;2022-07-23T05:17:46;27.30;73.70
41256;DHT22;26989;45.524;10.938;2022-07-23T05:20:13;27.40;73.20
41256;DHT22;26989;45.524;10.938;2022-07-23T05:22:41;28.80;71.00
41256;DHT22;26989;45.524;10.938;2022-07-23T05:25:08;29.60;69.60
41256;DHT22;26989;45.524;10.938;2022-07-23T05:27:35;30.40;68.50
41256;DHT22;26989;45.524;10.938;2022-07-23T05:30:02;31.50;66.60
41256;DHT22;26989;45.524;10.938;2022-07-23T05:32:32;31.20;66.40
41256;DHT22;26989;45.524;10.938;2022-07-23T05:34:59;31.20;66.00
41256;DHT22;26989;45.524;10.938;2022-07-23T05:37:26;30.80;66.60
41256;DHT22;26989;45.524;10.938;2022-07-23T05:39:52;31.50;65.50
41256;DHT22;26989;45.524;10.938;2022-07-23T05:42:19;31.60;64.80
41256;DHT22;26989;45.524;10.938;2022-07-23T05:44:46;33.40;63.40
41256;DHT22;26989;45.524;10.938;2022-07-23T05:47:13;34.90;62.50
41256;DHT22;26989;45.524;10.938;2022-07-23T05:49:40;37.20;60.70
41256;DHT22;26989;45.524;10.938;2022-07-23T05:52:07;38.50;58.00
41256;DHT22;26989;45.524;10.938;2022-07-23T05:54:34;39.60;57.50
41256;DHT22;26989;45.524;10.938;2022-07-23T05:57:02;39.80;57.00
41256;DHT22;26989;45.524;10.938;2022-07-23T05:59:30;40.10;57.30
41256;DHT22;26989;45.524;10.938;2022-07-23T06:01:57;40.20;57.70
41256;DHT22;26989;45.524;10.938;2022-07-23T06:04:24;40.30;57.00
41256;DHT22;26989;45.524;10.938;2022-07-23T06:06:51;40.70;57.50
41256;DHT22;26989;45.524;10.938;2022-07-23T06:09:18;40.80;57.30
41256;DHT22;26989;45.524;10.938;2022-07-23T06:11:45;41.30;57.30
41256;DHT22;26989;45.524;10.938;2022-07-23T06:14:12;41.40;57.10
41256;DHT22;26989;45.524;10.938;2022-07-23T06:16:39;37.70;57.80
41256;DHT22;26989;45.524;10.938;2022-07-23T06:19:06;35.40;60.60
41256;DHT22;26989;45.524;10.938;2022-07-23T06:21:33;34.10;62.90
41256;DHT22;26989;45.524;10.938;2022-07-23T06:24:15;34.20;64.20
41256;DHT22;26989;45.524;10.938;2022-07-23T06:26:42;33.40;64.30
41256;DHT22;26989;45.524;10.938;2022-07-23T06:29:08;35.60;64.00
41256;DHT22;26989;45.524;10.938;2022-07-23T06:31:35;37.10;62.20
41256;DHT22;26989;45.524;10.938;2022-07-23T06:34:02;38.70;60.70
41256;DHT22;26989;45.524;10.938;2022-07-23T06:36:29;39.70;59.70
41256;DHT22;26989;45.524;10.938;2022-07-23T06:38:56;40.10;59.00
41256;DHT22;26989;45.524;10.938;2022-07-23T06:41:23;40.20;58.30
41256;DHT22;26989;45.524;10.938;2022-07-23T06:43:50;40.70;58.80
41256;DHT22;26989;45.524;10.938;2022-07-23T06:46:17;41.10;58.30
41256;DHT22;26989;45.524;10.938;2022-07-23T06:48:44;40.40;58.10
41256;DHT22;26989;45.524;10.938;2022-07-23T06:51:11;41.20;58.40
41256;DHT22;26989;45.524;10.938;2022-07-23T06:53:38;40.90;58.00
41256;DHT22;26989;45.524;10.938;2022-07-23T06:56:05;40.80;58.40
41256;DHT22;26989;45.524;10.938;2022-07-23T06:58:32;40.00;59.20
41256;DHT22;26989;45.524;10.938;2022-07-23T07:00:59;40.40;58.30
41256;DHT22;26989;45.524;10.938;2022-07-23T07:03:26;40.50;58.90
41256;DHT22;26989;45.524;10.938;2022-07-23T07:05:53;40.30;58.60
41256;DHT22;26989;45.524;10.938;2022-07-23T07:08:20;39.20;58.80
41256;DHT22;26989;45.524;10.938;2022-07-23T07:10:47;36.40;60.30
41256;DHT22;26989;45.524;10.938;2022-07-23T07:13:14;35.30;61.20
41256;DHT22;26989;45.524;10.938;2022-07-23T07:15:41;34.60;62.40
41256;DHT22;26989;45.524;10.938;2022-07-23T07:18:08;34.00;62.90
41256;DHT22;26989;45.524;10.938;2022-07-23T07:20:35;33.60;63.30
41256;DHT22;26989;45.524;10.938;2022-07-23T07:23:02;33.40;64.10
41256;DHT22;26989;45.524;10.938;2022-07-23T07:25:28;33.30;63.80
41256;DHT22;26989;45.524;10.938;2022-07-23T07:27:56;32.70;64.00
41256;DHT22;26989;45.524;10.938;2022-07-23T07:30:23;32.90;64.40
41256;DHT22;26989;45.524;10.938;2022-07-23T07:32:50;33.00;64.20
41256;DHT22;26989;45.524;10.938;2022-07-23T07:35:23;33.40;62.60
41256;DHT22;26989;45.524;10.938;2022-07-23T07:37:49;33.40;62.70
41256;DHT22;26989;45.524;10.938;2022-07-23T07:40:16;33.10;63.40
41256;DHT22;26989;45.524;10.938;2022-07-23T07:42:51;32.10;64.40
41256;DHT22;26989;45.524;10.938;2022-07-23T07:45:20;32.60;64.60
41256;DHT22;26989;45.524;10.938;2022-07-23T07:47:47;33.10;63.80
41256;DHT22;26989;45.524;10.938;2022-07-23T07:50:14;32.60;64.70
41256;DHT22;26989;45.524;10.938;2022-07-23T07:52:42;33.00;63.90
41256;DHT22;26989;45.524;10.938;2022-07-23T07:55:10;33.00;64.00
41256;DHT22;26989;45.524;10.938;2022-07-23T07:57:37;33.00;64.10
41256;DHT22;26989;45.524;10.938;2022-07-23T08:00:06;33.00;64.00
41256;DHT22;26989;45.524;10.938;2022-07-23T08:02:45;33.50;63.40
41256;DHT22;26989;45.524;10.938;2022-07-23T08:05:12;34.00;62.70
41256;DHT22;26989;45.524;10.938;2022-07-23T08:07:39;34.00;62.00
41256;DHT22;26989;45.524;10.938;2022-07-23T08:10:08;33.90;61.80
41256;DHT22;26989;45.524;10.938;2022-07-23T08:12:47;33.30;62.80
41256;DHT22;26989;45.524;10.938;2022-07-23T08:15:16;33.30;62.90
41256;DHT22;26989;45.524;10.938;2022-07-23T08:17:44;33.50;62.70
41256;DHT22;26989;45.524;10.938;2022-07-23T08:20:13;34.10;62.70
41256;DHT22;26989;45.524;10.938;2022-07-23T08:22:48;34.40;62.60
41256;DHT22;26989;45.524;10.938;2022-07-23T08:25:19;34.40;62.20
41256;DHT22;26989;45.524;10.938;2022-07-23T08:27:46;34.40;62.30
41256;DHT22;26989;45.524;10.938;2022-07-23T08:30:13;34.10;63.20
41256;DHT22;26989;45.524;10.938;2022-07-23T08:35:24;34.20;62.50
41256;DHT22;26989;45.524;10.938;2022-07-23T08:37:52;34.20;63.00
41256;DHT22;26989;45.524;10.938;2022-07-23T08:40:19;34.40;62.80
41256;DHT22;26989;45.524;10.938;2022-07-23T08:42:50;34.60;63.00
41256;DHT22;26989;45.524;10.938;2022-07-23T08:45:19;33.50;63.50
41256;DHT22;26989;45.524;10.938;2022-07-23T08:47:55;34.10;64.00
41256;DHT22;26989;45.524;10.938;2022-07-23T08:50:23;34.70;63.30
41256;DHT22;26989;45.524;10.938;2022-07-23T08:52:52;34.40;63.00
41256;DHT22;26989;45.524;10.938;2022-07-23T08:55:21;34.90;63.60
41256;DHT22;26989;45.524;10.938;2022-07-23T08:57:50;35.20;62.70
41256;DHT22;26989;45.524;10.938;2022-07-23T09:00:18;35.30;62.40
41256;DHT22;26989;45.524;10.938;2022-07-23T09:02:46;35.20;62.40
41256;DHT22;26989;45.524;10.938;2022-07-23T09:05:14;35.40;62.50
41256;DHT22;26989;45.524;10.938;2022-07-23T09:10:30;35.70;61.70
41256;DHT22;26989;45.524;10.938;2022-07-23T09:15:58;35.40;62.10
41256;DHT22;26989;45.524;10.938;2022-07-23T09:18:30;35.50;61.90
41256;DHT22;26989;45.524;10.938;2022-07-23T09:21:11;35.90;62.20
41256;DHT22;26989;45.524;10.938;2022-07-23T09:24:13;35.20;63.00
41256;DHT22;26989;45.524;10.938;2022-07-23T09:26:40;35.70;63.00
41256;DHT22;26989;45.524;10.938;2022-07-23T09:29:23;35.20;63.50
41256;DHT22;26989;45.524;10.938;2022-07-23T09:32:00;35.40;63.10
41256;DHT22;26989;45.524;10.938;2022-07-23T09:34:30;34.70;63.20
41256;DHT22;26989;45.524;10.938;2022-07-23T09:37:12;35.00;63.60
41256;DHT22;26989;45.524;10.938;2022-07-23T09:39:40;35.20;63.50
41256;DHT22;26989;45.524;10.938;2022-07-23T09:42:14;35.10;63.20
41256;DHT22;26989;45.524;10.938;2022-07-23T09:44:47;35.10;63.50
41256;DHT22;26989;45.524;10.938;2022-07-23T09:47:15;35.40;62.90
41256;DHT22;26989;45.524;10.938;2022-07-23T09:50:01;35.30;62.90
41256;DHT22;26989;45.524;10.938;2022-07-23T09:52:33;35.30;63.30
41256;DHT22;26989;45.524;10.938;2022-07-23T09:55:04;35.10;63.60
41256;DHT22;26989;45.524;10.938;2022-07-23T09:57:32;35.50;64.00
41256;DHT22;26989;45.524;10.938;2022-07-23T10:00:03;35.70;63.80
41256;DHT22;26989;45.524;10.938;2022-07-23T10:02:32;35.60;63.50
41256;DHT22;26989;45.524;10.938;2022-07-23T10:05:01;35.50;63.60
41256;DHT22;26989;45.524;10.938;2022-07-23T10:07:31;35.80;63.80
41256;DHT22;26989;45.524;10.938;2022-07-23T10:10:01;36.00;63.60
41256;DHT22;26989;45.524;10.938;2022-07-23T10:12:29;36.10;63.60
41256;DHT22;26989;45.524;10.938;2022-07-23T10:14:59;35.90;63.50
41256;DHT22;26989;45.524;10.938;2022-07-23T10:17:30;36.30;63.20
41256;DHT22;26989;45.524;10.938;2022-07-23T10:19:56;36.60;62.50
41256;DHT22;26989;45.524;10.938;2022-07-23T10:22:26;36.70;61.50
41256;DHT22;26989;45.524;10.938;2022-07-23T10:33:20;37.30;60.80
41256;DHT22;26989;45.524;10.938;2022-07-23T10:35:55;37.30;60.80
41256;DHT22;26989;45.524;10.938;2022-07-23T10:39:05;37.30;60.80
41256;DHT22;26989;45.524;10.938;2022-07-23T10:41:40;37.20;60.50
41256;DHT22;26989;45.524;10.938;2022-07-23T10:47:01;37.60;60.10
41256;DHT22;26989;45.524;10.938;2022-07-23T10:49:32;37.50;59.20
41256;DHT22;26989;45.524;10.938;2022-07-23T10:52:15;37.60;58.80
41256;DHT22;26989;45.524;10.938;2022-07-23T10:54:50;37.70;58.40
41256;DHT22;26989;45.524;10.938;2022-07-23T10:57:22;37.60;58.80
41256;DHT22;26989;45.524;10.938;2022-07-23T11:00:16;37.70;58.00
41256;DHT22;26989;45.524;10.938;2022-07-23T11:02:47;37.60;57.00
41256;DHT22;26989;45.524;10.938;2022-07-23T11:05:20;37.50;56.70
41256;DHT22;26989;45.524;10.938;2022-07-23T11:31:58;36.00;56.00
41256;DHT22;26989;45.524;10.938;2022-07-23T11:34:31;36.10;55.30
41256;DHT22;26989;45.524;10.938;2022-07-23T11:37:03;36.20;55.60
41256;DHT22;26989;45.524;10.938;2022-07-23T11:39:31;36.30;55.30
41256;DHT22;26989;45.524;10.938;2022-07-23T11:41:59;36.30;55.30
41256;DHT22;26989;45.524;10.938;2022-07-23T11:44:33;36.30;54.80
41256;DHT22;26989;45.524;10.938;2022-07-23T11:47:03;36.30;55.30
41256;DHT22;26989;45.524;10.938;2022-07-23T11:49:32;36.50;55.60
41256;DHT22;26989;45.524;10.938;2022-07-23T11:52:09;36.50;55.70
41256;DHT22;26989;45.524;10.938;2022-07-23T11:54:46;36.50;55.50
41256;DHT22;26989;45.524;10.938;2022-07-23T11:57:14;36.50;55.20
41256;DHT22;26989;45.524;10.938;2022-07-23T11:59:42;36.50;56.10
41256;DHT22;26989;45.524;10.938;2022-07-23T12:02:10;36.60;57.80
41256;DHT22;26989;45.524;10.938;2022-07-23T12:04:46;36.50;57.30
41256;DHT22;26989;45.524;10.938;2022-07-23T12:07:33;36.40;58.20
41256;DHT22;26989;45.524;10.938;2022-07-23T12:10:04;36.40;59.20
41256;DHT22;26989;45.524;10.938;2022-07-23T12:12:40;36.50;59.40
41256;DHT22;26989;45.524;10.938;2022-07-23T12:15:09;36.60;59.50
41256;DHT22;26989;45.524;10.938;2022-07-23T12:17:37;36.70;59.90
41256;DHT22;26989;45.524;10.938;2022-07-23T12:20:07;36.50;59.90
41256;DHT22;26989;45.524;10.938;2022-07-23T12:22:44;36.60;59.80
41256;DHT22;26989;45.524;10.938;2022-07-23T12:25:13;36.70;60.00
41256;DHT22;26989;45.524;10.938;2022-07-23T12:27:41;36.70;60.10
41256;DHT22;26989;45.524;10.938;2022-07-23T12:30:20;36.70;59.90
41256;DHT22;26989;45.524;10.938;2022-07-23T12:32:49;36.80;59.60
41256;DHT22;26989;45.524;10.938;2022-07-23T12:35:16;36.80;59.80
41256;DHT22;26989;45.524;10.938;2022-07-23T12:37:45;36.70;60.10
41256;DHT22;26989;45.524;10.938;2022-07-23T12:40:34;36.80;59.80
41256;DHT22;26989;45.524;10.938;2022-07-23T12:43:08;36.80;60.60
41256;DHT22;26989;45.524;10.938;2022-07-23T12:45:48;36.70;60.10
41256;DHT22;26989;45.524;10.938;2022-07-23T12:48:30;36.80;60.00
41256;DHT22;26989;45.524;10.938;2022-07-23T12:56:09;37.00;60.10
41256;DHT22;26989;45.524;10.938;2022-07-23T12:58:59;37.10;59.80
41256;DHT22;26989;45.524;10.938;2022-07-23T13:01:35;37.30;59.20
41256;DHT22;26989;45.524;10.938;2022-07-23T13:04:06;37.00;59.70
41256;DHT22;26989;45.524;10.938;2022-07-23T13:06:52;37.00;60.70
41256;DHT22;26989;45.524;10.938;2022-07-23T13:09:22;37.20;61.90
41256;DHT22;26989;45.524;10.938;2022-07-23T13:12:09;37.30;61.80
41256;DHT22;26989;45.524;10.938;2022-07-23T13:14:37;36.90;62.20
41256;DHT22;26989;45.524;10.938;2022-07-23T13:17:05;36.90;61.60
41256;DHT22;26989;45.524;10.938;2022-07-23T13:19:33;36.80;62.70
41256;DHT22;26989;45.524;10.938;2022-07-23T13:22:01;36.90;62.80
41256;DHT22;26989;45.524;10.938;2022-07-23T13:24:47;37.10;62.80
41256;DHT22;26989;45.524;10.938;2022-07-23T13:27:15;37.10;62.70
41256;DHT22;26989;45.524;10.938;2022-07-23T13:29:42;37.30;62.40
41256;DHT22;26989;45.524;10.938;2022-07-23T13:32:12;37.30;62.20
41256;DHT22;26989;45.524;10.938;2022-07-23T13:34:39;37.50;63.20
41256;DHT22;26989;45.524;10.938;2022-07-23T13:37:08;37.60;62.10
41256;DHT22;26989;45.524;10.938;2022-07-23T13:39:35;37.70;61.60
41256;DHT22;26989;45.524;10.938;2022-07-23T13:42:04;37.90;61.20
41256;DHT22;26989;45.524;10.938;2022-07-23T13:44:34;37.90;61.30
41256;DHT22;26989;45.524;10.938;2022-07-23T13:47:02;37.90;60.80
41256;DHT22;26989;45.524;10.938;2022-07-23T13:49:30;37.90;61.10
41256;DHT22;26989;45.524;10.938;2022-07-23T13:51:57;38.10;61.30
41256;DHT22;26989;45.524;10.938;2022-07-23T13:54:24;38.10;61.30
41256;DHT22;26989;45.524;10.938;2022-07-23T13:56:54;38.10;61.10
41256;DHT22;26989;45.524;10.938;2022-07-23T13:59:22;37.90;61.80
41256;DHT22;26989;45.524;10.938;2022-07-23T14:01:52;38.10;61.40
41256;DHT22;26989;45.524;10.938;2022-07-23T14:04:39;38.10;61.30
41256;DHT22;26989;45.524;10.938;2022-07-23T14:07:08;38.20;61.50
41256;DHT22;26989;45.524;10.938;2022-07-23T14:09:35;38.00;61.40
41256;DHT22;26989;45.524;10.938;2022-07-23T14:12:02;38.20;61.00
41256;DHT22;26989;45.524;10.938;2022-07-23T14:14:30;38.30;61.30
41256;DHT22;26989;45.524;10.938;2022-07-23T14:16:57;38.20;60.60
41256;DHT22;26989;45.524;10.938;2022-07-23T14:19:24;38.00;60.90
41256;DHT22;26989;45.524;10.938;2022-07-23T14:21:51;38.10;60.90
41256;DHT22;26989;45.524;10.938;2022-07-23T14:24:17;37.60;61.30
41256;DHT22;26989;45.524;10.938;2022-07-23T14:26:47;38.00;60.50
41256;DHT22;26989;45.524;10.938;2022-07-23T14:29:14;37.70;60.80
41256;DHT22;26989;45.524;10.938;2022-07-23T14:31:42;37.80;61.10
41256;DHT22;26989;45.524;10.938;2022-07-23T14:34:09;38.10;61.10
41256;DHT22;26989;45.524;10.938;2022-07-23T14:36:38;37.80;61.10
41256;DHT22;26989;45.524;10.938;2022-07-23T14:39:05;37.90;61.20
41256;DHT22;26989;45.524;10.938;2022-07-23T14:41:35;38.10;61.70
41256;DHT22;26989;45.524;10.938;2022-07-23T14:44:02;38.10;61.90
41256;DHT22;26989;45.524;10.938;2022-07-23T14:46:31;38.10;62.00
41256;DHT22;26989;45.524;10.938;2022-07-23T14:48:59;37.80;62.00
41256;DHT22;26989;45.524;10.938;2022-07-23T14:51:26;37.90;62.40
41256;DHT22;26989;45.524;10.938;2022-07-23T14:53:54;37.80;62.60
41256;DHT22;26989;45.524;10.938;2022-07-23T14:56:21;38.00;62.70
41256;DHT22;26989;45.524;10.938;2022-07-23T14:58:48;38.10;62.60
41256;DHT22;26989;45.524;10.938;2022-07-23T15:01:15;37.80;63.10
41256;DHT22;26989;45.524;10.938;2022-07-23T15:03:43;37.70;63.20
41256;DHT22;26989;45.524;10.938;2022-07-23T15:06:10;37.60;63.20
41256;DHT22;26989;45.524;10.938;2022-07-23T15:08:38;37.70;63.40
41256;DHT22;26989;45.524;10.938;2022-07-23T15:11:05;37.60;62.90
41256;DHT22;26989;45.524;10.938;2022-07-23T15:13:33;37.70;63.10
41256;DHT22;26989;45.524;10.938;2022-07-23T15:16:00;37.80;62.80
41256;DHT22;26989;45.524;10.938;2022-07-23T15:18:28;38.10;62.90
41256;DHT22;26989;45.524;10.938;2022-07-23T15:20:56;38.50;62.00
41256;DHT22;26989;45.524;10.938;2022-07-23T15:23:23;38.40;61.60
41256;DHT22;26989;45.524;10.938;2022-07-23T15:25:51;38.80;60.50
41256;DHT22;26989;45.524;10.938;2022-07-23T15:28:18;39.00;58.80
41256;DHT22;26989;45.524;10.938;2022-07-23T15:30:48;38.90;56.40
41256;DHT22;26989;45.524;10.938;2022-07-23T15:33:16;39.20;56.90
41256;DHT22;26989;45.524;10.938;2022-07-23T15:35:47;39.00;57.10
41256;DHT22;26989;45.524;10.938;2022-07-23T15:38:14;38.30;56.80
41256;DHT22;26989;45.524;10.938;2022-07-23T15:40:51;37.70;58.40
41256;DHT22;26989;45.524;10.938;2022-07-23T15:43:18;37.90;59.40
41256;DHT22;26989;45.524;10.938;2022-07-23T15:45:45;38.10;59.50
41256;DHT22;26989;45.524;10.938;2022-07-23T15:48:12;37.90;59.70
41256;DHT22;26989;45.524;10.938;2022-07-23T15:50:40;37.70;59.80
41256;DHT22;26989;45.524;10.938;2022-07-23T15:53:12;37.30;60.10
41256;DHT22;26989;45.524;10.938;2022-07-23T15:55:41;37.10;61.00
41256;DHT22;26989;45.524;10.938;2022-07-23T15:58:12;37.00;61.30
41256;DHT22;26989;45.524;10.938;2022-07-23T16:00:39;37.10;61.70
41256;DHT22;26989;45.524;10.938;2022-07-23T16:03:08;37.00;61.70
41256;DHT22;26989;45.524;10.938;2022-07-23T16:05:36;36.70;62.00
41256;DHT22;26989;45.524;10.938;2022-07-23T16:08:04;36.60;62.40
41256;DHT22;26989;45.524;10.938;2022-07-23T16:10:31;36.70;62.90
41256;DHT22;26989;45.524;10.938;2022-07-23T16:12:58;36.90;63.10
41256;DHT22;26989;45.524;10.938;2022-07-23T16:15:25;36.60;63.50